^^
Meteo Knjazevac Station Historical Data
Daily Summary for May 28, 2021 Units:  Metric    English   Both
Daily Weekly Monthly Yearly Custom
  High: Low: Average:
Temperature: 16.3 °C -2.6 °C 5.6 °C
Dew Point: 9.3 °C -3.6 °C 2.9 °C
Humidity: 98% 62% 84%
Wind Speed: 9.7km/h 0km/h 2.6km/h
Wind Gust: 20.9km/h - -
Wind- - WSW
Pressure: 1029.3 hPa 1026 hPa -
Precipitation: 0 mm    
Historical Graphs
 
 
Tabular Data for May 28, 2021
Time Temperature Dew Point Pressure Wind Wind Speed Wind Gust Humidity Rainfall Rate (Hourly) solar Conditions
00:00 1.3 °C -0.2 °C 1028.7 hPa Calm   3.2 km/h 90% 0 mm 0 W/m2
00:10 1.1 °C -0.5 °C 1029 hPa Calm   1.6 km/h 89% 0 mm 0 W/m2
00:20 0.8 °C -0.8 °C 1029 hPa West 3.2 km/h 6.4 km/h 89% 0 mm 0 W/m2
00:30 0.7 °C -0.6 °C 1029 hPa WNW 3.2 km/h 6.4 km/h 91% 0 mm 0 W/m2
00:40 0.8 °C -0.2 °C 1028.7 hPa WNW 1.6 km/h 6.4 km/h 93% 0 mm 0 W/m2
00:50 0.6 °C -0.7 °C 1028.7 hPa WNW 1.6 km/h 3.2 km/h 91% 0 mm 0 W/m2
01:00 0.4 °C -0.9 °C 1028.7 hPa Calm   3.2 km/h 91% 0 mm 0 W/m2
01:10 0.2 °C -1.2 °C 1028.7 hPa Calm   3.2 km/h 90% 0 mm 0 W/m2
01:20 0.2 °C -0.8 °C 1028.7 hPa NNW 1.6 km/h 4.8 km/h 93% 0 mm 0 W/m2
01:30 0.2 °C -0.8 °C 1028.7 hPa Calm   3.2 km/h 93% 0 mm 0 W/m2
01:40 0 °C -1.3 °C 1028.7 hPa Calm   3.2 km/h 91% 0 mm 0 W/m2
01:50 -0.1 °C -1.4 °C 1028.7 hPa WNW 1.6 km/h 3.2 km/h 91% 0 mm 0 W/m2
02:00 -0.3 °C -1.6 °C 1028.7 hPa NW 1.6 km/h 3.2 km/h 91% 0 mm 0 W/m2
02:10 -0.4 °C -1.7 °C 1028.7 hPa West 3.2 km/h 3.2 km/h 91% 0 mm 0 W/m2
02:20 -0.5 °C -1.3 °C 1028.7 hPa West 4.8 km/h 9.7 km/h 94% 0 mm 0 W/m2
02:30 -0.5 °C -1.3 °C 1028.7 hPa WNW 4.8 km/h 8 km/h 94% 0 mm 0 W/m2
02:40 -0.6 °C -1.4 °C 1028.7 hPa West 1.6 km/h 6.4 km/h 94% 0 mm 0 W/m2
02:50 -0.7 °C -1.7 °C 1028.7 hPa West 1.6 km/h 4.8 km/h 93% 0 mm 0 W/m2
03:00 -0.7 °C -1.7 °C 1028.7 hPa West 1.6 km/h 4.8 km/h 93% 0 mm 0 W/m2
03:10 -0.9 °C -1.9 °C 1028.7 hPa West 3.2 km/h 4.8 km/h 93% 0 mm 0 W/m2
03:20 -1 °C -2 °C 1028.7 hPa WNW 1.6 km/h 4.8 km/h 93% 0 mm 0 W/m2
03:30 -1.1 °C -2.1 °C 1028.7 hPa NW 1.6 km/h 3.2 km/h 93% 0 mm 0 W/m2
03:40 -1.2 °C -2.2 °C 1028.3 hPa NW 1.6 km/h 3.2 km/h 93% 0 mm 0 W/m2
03:50 -1.3 °C -2.3 °C 1028.3 hPa WNW 3.2 km/h 3.2 km/h 93% 0 mm 0 W/m2
04:00 -1.3 °C -2.3 °C 1028.3 hPa WNW 1.6 km/h 4.8 km/h 93% 0 mm 0 W/m2
04:10 -1.4 °C -2.4 °C 1028.3 hPa WNW 3.2 km/h 4.8 km/h 93% 0 mm 0 W/m2
04:20 -1.5 °C -2.3 °C 1028.3 hPa NW 1.6 km/h 4.8 km/h 94% 0 mm 0 W/m2
04:30 -1.6 °C -2.6 °C 1028.3 hPa NW 1.6 km/h 3.2 km/h 93% 0 mm 0 W/m2
04:40 -1.6 °C -2.4 °C 1028.3 hPa WNW 1.6 km/h 4.8 km/h 94% 0 mm 0 W/m2
04:50 -1.7 °C -2.6 °C 1028.3 hPa Calm   4.8 km/h 94% 0 mm 0 W/m2
05:00 -1.8 °C -2.8 °C 1028.3 hPa NW 1.6 km/h 3.2 km/h 93% 0 mm 0 W/m2
05:10 -1.9 °C -2.9 °C 1028.3 hPa NW 3.2 km/h 4.8 km/h 93% 0 mm 0 W/m2
05:20 -1.9 °C -2.9 °C 1028.7 hPa NW 1.6 km/h 3.2 km/h 93% 0 mm 0 W/m2
05:30 -2 °C -3 °C 1028.7 hPa Calm   3.2 km/h 93% 0 mm 0 W/m2
05:40 -2.1 °C -3.1 °C 1028.7 hPa NW 1.6 km/h 3.2 km/h 93% 0 mm 0 W/m2
05:50 -2.2 °C -3.1 °C 1028.7 hPa WNW 1.6 km/h 4.8 km/h 94% 0 mm 0 W/m2
06:00 -2.2 °C -3.1 °C 1028.7 hPa WNW 1.6 km/h 3.2 km/h 94% 0 mm 0 W/m2
06:10 -2.3 °C -3.1 °C 1029 hPa WNW 3.2 km/h 3.2 km/h 94% 0 mm 0 W/m2
06:20 -2.3 °C -3.1 °C 1029 hPa WNW 3.2 km/h 4.8 km/h 94% 0 mm 0 W/m2
06:30 -2.3 °C -3.1 °C 1029 hPa WNW 3.2 km/h 4.8 km/h 94% 0 mm 0 W/m2
06:40 -2.3 °C -3 °C 1029 hPa NW 1.6 km/h 4.8 km/h 95% 0 mm 0 W/m2
06:50 -2.3 °C -3 °C 1029 hPa NW 1.6 km/h 3.2 km/h 95% 0 mm 0 W/m2
07:00 -2.4 °C -3.1 °C 1029 hPa NW 1.6 km/h 6.4 km/h 95% 0 mm 0 W/m2
07:10 -2.4 °C -3.2 °C 1029 hPa NNW 1.6 km/h 4.8 km/h 94% 0 mm 4 W/m2
07:20 -2.5 °C -3.3 °C 1029 hPa NW 1.6 km/h 3.2 km/h 94% 0 mm 17 W/m2
07:30 -2.6 °C -3.6 °C 1029 hPa WNW 3.2 km/h 4.8 km/h 93% 0 mm 31 W/m2
07:40 -2.6 °C -3.4 °C 1029 hPa WNW 3.2 km/h 4.8 km/h 94% 0 mm 44 W/m2
07:50 -2.5 °C -3.2 °C 1029.3 hPa NW 1.6 km/h 4.8 km/h 95% 0 mm 62 W/m2
08:00 -2.5 °C -3.3 °C 1029.3 hPa Calm   3.2 km/h 94% 0 mm 82 W/m2
08:10 -2.3 °C -3 °C 1029.3 hPa WNW 3.2 km/h 3.2 km/h 95% 0 mm 106 W/m2
08:20 -2.2 °C -2.9 °C 1029.3 hPa WNW 1.6 km/h 3.2 km/h 95% 0 mm 107 W/m2
08:30 -1.9 °C -2.4 °C 1029.3 hPa NW 1.6 km/h 3.2 km/h 96% 0 mm 156 W/m2
08:40 -1.2 °C -1.7 °C 1029.3 hPa Calm   3.2 km/h 96% 0 mm 184 W/m2
08:50 -0.3 °C -0.6 °C 1029.3 hPa NW 1.6 km/h 3.2 km/h 98% 0 mm 204 W/m2
09:00 0.4 °C 0.1 °C 1029.3 hPa West 1.6 km/h 3.2 km/h 98% 0 mm 232 W/m2
09:10 1.1 °C 0.6 °C 1029.3 hPa WSW 1.6 km/h 3.2 km/h 96% 0 mm 257 W/m2
09:20 1.8 °C 1.1 °C 1029.3 hPa SW 1.6 km/h 3.2 km/h 95% 0 mm 253 W/m2
09:30 2.4 °C 1.6 °C 1029.3 hPa West 1.6 km/h 4.8 km/h 94% 0 mm 310 W/m2
09:40 2.9 °C 1.9 °C 1029.3 hPa West 1.6 km/h 3.2 km/h 93% 0 mm 334 W/m2
09:50 3.6 °C 2.6 °C 1029 hPa SW 1.6 km/h 3.2 km/h 93% 0 mm 356 W/m2
10:00 4.4 °C 3.1 °C 1029 hPa SW 1.6 km/h 4.8 km/h 91% 0 mm 381 W/m2
10:10 5.1 °C 3.4 °C 1029 hPa NNE 1.6 km/h 6.4 km/h 89% 0 mm 394 W/m2
10:20 5.7 °C 3.6 °C 1029 hPa North 3.2 km/h 8 km/h 86% 0 mm 219 W/m2
10:30 6.4 °C 4.2 °C 1029 hPa NE 4.8 km/h 9.7 km/h 86% 0 mm 129 W/m2
10:40 7 °C 4.5 °C 1029 hPa NNE 1.6 km/h 9.7 km/h 84% 0 mm 289 W/m2
10:50 7.5 °C 4.8 °C 1029 hPa NE 1.6 km/h 8 km/h 83% 0 mm 457 W/m2
11:00 8 °C 5.3 °C 1029 hPa NNE 1.6 km/h 8 km/h 83% 0 mm 472 W/m2
11:10 8.5 °C 5.2 °C 1028.7 hPa ESE 1.6 km/h 8 km/h 80% 0 mm 483 W/m2
11:20 8.9 °C 5.7 °C 1028.7 hPa NNE 1.6 km/h 8 km/h 80% 0 mm 491 W/m2
11:30 9.7 °C 6.2 °C 1028.7 hPa North 4.8 km/h 8 km/h 79% 0 mm 499 W/m2
11:40 10.1 °C 6.4 °C 1028.3 hPa NE 1.6 km/h 9.7 km/h 78% 0 mm 505 W/m2
11:50 10.7 °C 7.1 °C 1028.3 hPa NNE 8 km/h 12.9 km/h 78% 0 mm 509 W/m2
12:00 11.2 °C 7.3 °C 1028.3 hPa NE 1.6 km/h 11.3 km/h 77% 0 mm 512 W/m2
12:10 11.8 °C 7.5 °C 1028 hPa NE 3.2 km/h 11.3 km/h 75% 0 mm 513 W/m2
12:20 12.3 °C 7.8 °C 1028 hPa NNE 8 km/h 19.3 km/h 74% 0 mm 513 W/m2
12:30 12.8 °C 8.1 °C 1027.7 hPa North 3.2 km/h 12.9 km/h 73% 0 mm 511 W/m2
12:40 13.3 °C 8.4 °C 1027.7 hPa NNE 3.2 km/h 12.9 km/h 72% 0 mm 507 W/m2
12:50 13.9 °C 8.5 °C 1027.7 hPa NNE 3.2 km/h 12.9 km/h 70% 0 mm 502 W/m2
13:00 14.3 °C 8.7 °C 1027.3 hPa NNE 4.8 km/h 12.9 km/h 69% 0 mm 496 W/m2
13:10 14.7 °C 8.9 °C 1027.3 hPa North 1.6 km/h 12.9 km/h 68% 0 mm 488 W/m2
13:20 15.1 °C 9.2 °C 1027 hPa NNE 4.8 km/h 11.3 km/h 68% 0 mm 478 W/m2
13:30 15.4 °C 9.3 °C 1027 hPa North 4.8 km/h 11.3 km/h 67% 0 mm 467 W/m2
13:40 15.6 °C 9.1 °C 1026.6 hPa NNE 4.8 km/h 16.1 km/h 65% 0 mm 455 W/m2
13:50 15.9 °C 9.1 °C 1026.6 hPa North 4.8 km/h 16.1 km/h 64% 0 mm 441 W/m2
14:00 16.1 °C 9.1 °C 1026.3 hPa North 9.7 km/h 16.1 km/h 63% 0 mm 425 W/m2
14:10 16.2 °C 9.2 °C 1026.3 hPa NNE 4.8 km/h 12.9 km/h 63% 0 mm 409 W/m2
14:20 16.2 °C 9.2 °C 1026.3 hPa North 3.2 km/h 16.1 km/h 63% 0 mm 391 W/m2
14:30 16.2 °C 9.2 °C 1026.3 hPa NNW 1.6 km/h 9.7 km/h 63% 0 mm 373 W/m2
14:40 16.3 °C 9 °C 1026 hPa North 9.7 km/h 14.5 km/h 62% 0 mm 353 W/m2
14:50 16.3 °C 9 °C 1026 hPa North 8 km/h 16.1 km/h 62% 0 mm 332 W/m2
15:00 16.2 °C 9.2 °C 1026 hPa North 4.8 km/h 16.1 km/h 63% 0 mm 310 W/m2
15:10 16.2 °C 9.2 °C 1026 hPa North 4.8 km/h 17.7 km/h 63% 0 mm 287 W/m2
15:20 16.1 °C 9.1 °C 1026 hPa North 8 km/h 19.3 km/h 63% 0 mm 264 W/m2
15:30 15.8 °C 8.8 °C 1026 hPa North 8 km/h 19.3 km/h 63% 0 mm 240 W/m2
15:40 15.7 °C 8.9 °C 1026 hPa North 9.7 km/h 20.9 km/h 64% 0 mm 216 W/m2
15:50 15.5 °C 8.7 °C 1026 hPa North 8 km/h 16.1 km/h 64% 0 mm 191 W/m2
16:00 15.3 °C 8.5 °C 1026 hPa North 8 km/h 14.5 km/h 64% 0 mm 160 W/m2
16:10 15.1 °C 8.6 °C 1026 hPa North 8 km/h 19.3 km/h 65% 0 mm 131 W/m2
16:20 14.9 °C 8.3 °C 1026 hPa North 8 km/h 16.1 km/h 65% 0 mm 108 W/m2
16:30 14.6 °C 8.6 °C 1026 hPa North 4.8 km/h 16.1 km/h 67% 0 mm 90 W/m2
16:40 14.4 °C 8.3 °C 1026 hPa NNW 4.8 km/h 14.5 km/h 67% 0 mm 69 W/m2
16:50 14.1 °C 8.3 °C 1026 hPa North 8 km/h 12.9 km/h 68% 0 mm 49 W/m2
17:00 13.8 °C 8 °C 1026 hPa NNW 3.2 km/h 14.5 km/h 68% 0 mm 29 W/m2
17:10 13.5 °C 7.9 °C 1026 hPa NNW 3.2 km/h 11.3 km/h 69% 0 mm 12 W/m2
17:20 13.1 °C 7.7 °C 1026 hPa NNW 3.2 km/h 11.3 km/h 70% 0 mm 10 W/m2
17:30 12.7 °C 7.8 °C 1026 hPa NNW 3.2 km/h 12.9 km/h 72% 0 mm 0 W/m2
17:40 12.3 °C 7.6 °C 1026 hPa NNW 8 km/h 12.9 km/h 73% 0 mm 0 W/m2
17:50 12 °C 7.5 °C 1026 hPa NNW 3.2 km/h 11.3 km/h 74% 0 mm 0 W/m2
18:00 11.6 °C 7.3 °C 1026 hPa NW 1.6 km/h 9.7 km/h 75% 0 mm 0 W/m2
18:10 11.2 °C 6.9 °C 1026.3 hPa WNW 3.2 km/h 8 km/h 75% 0 mm 0 W/m2
18:20 11 °C 7.1 °C 1026.3 hPa NNW 3.2 km/h 8 km/h 77% 0 mm 0 W/m2
18:30 10.6 °C 6.9 °C 1026.3 hPa NW 3.2 km/h 11.3 km/h 78% 0 mm 0 W/m2
18:40 10.3 °C 6.6 °C 1026.3 hPa West 4.8 km/h 9.7 km/h 78% 0 mm 0 W/m2
18:50 9.9 °C 6.2 °C 1026.3 hPa West 1.6 km/h 6.4 km/h 78% 0 mm 0 W/m2
19:00 9.6 °C 6.1 °C 1026.6 hPa Calm   4.8 km/h 79% 0 mm 0 W/m2
19:10 9.2 °C 5.7 °C 1026.6 hPa WSW 1.6 km/h 4.8 km/h 79% 0 mm 0 W/m2
19:20 8.8 °C 5.6 °C 1026.6 hPa WSW 1.6 km/h 4.8 km/h 80% 0 mm 0 W/m2
19:30 8.5 °C 5.4 °C 1026.6 hPa WSW 3.2 km/h 4.8 km/h 81% 0 mm 0 W/m2
19:40 8.2 °C 5.5 °C 1026.6 hPa SW 1.6 km/h 4.8 km/h 83% 0 mm 0 W/m2
19:50 7.9 °C 5.2 °C 1026.6 hPa Calm   4.8 km/h 83% 0 mm 0 W/m2
20:00 7.6 °C 5.1 °C 1026.6 hPa SW 1.6 km/h 3.2 km/h 84% 0 mm 0 W/m2
20:10 7.3 °C 4.8 °C 1026.6 hPa Calm   3.2 km/h 84% 0 mm 0 W/m2
20:20 7 °C 4.7 °C 1026.6 hPa Calm   3.2 km/h 85% 0 mm 0 W/m2
20:30 6.7 °C 4.5 °C 1026.6 hPa NW 1.6 km/h 4.8 km/h 86% 0 mm 0 W/m2
20:40 6.5 °C 4.3 °C 1026.6 hPa WNW 1.6 km/h 3.2 km/h 86% 0 mm 0 W/m2
20:50 6.2 °C 4.3 °C 1026.6 hPa Calm   3.2 km/h 88% 0 mm 0 W/m2
21:00 6.1 °C 4.1 °C 1026.6 hPa Calm     87% 0 mm 0 W/m2
21:10 5.9 °C 4.1 °C 1027 hPa WSW 1.6 km/h 3.2 km/h 88% 0 mm 0 W/m2
21:20 5.6 °C 3.9 °C 1027 hPa Calm   3.2 km/h 89% 0 mm 0 W/m2
21:30 5.4 °C 3.7 °C 1027 hPa Calm   3.2 km/h 89% 0 mm 0 W/m2
21:40 5.2 °C 3.7 °C 1027 hPa SSW 1.6 km/h 4.8 km/h 90% 0 mm 0 W/m2
21:50 5.1 °C 3.7 °C 1027 hPa SSW 3.2 km/h 6.4 km/h 91% 0 mm 0 W/m2
22:00 4.9 °C 3.6 °C 1027.3 hPa Calm   4.8 km/h 91% 0 mm 0 W/m2
22:10 4.7 °C 3.3 °C 1027.3 hPa Calm   3.2 km/h 91% 0 mm 0 W/m2
22:20 4.6 °C 3.4 °C 1027.3 hPa Calm   4.8 km/h 92% 0 mm 0 W/m2
22:30 4.5 °C 3.4 °C 1027.3 hPa SE 1.6 km/h 3.2 km/h 93% 0 mm 0 W/m2
22:40 4.3 °C 2.9 °C 1027.3 hPa Calm   3.2 km/h 91% 0 mm 0 W/m2
22:50 4.2 °C 3.1 °C 1027.3 hPa Calm   3.2 km/h 93% 0 mm 0 W/m2
23:00 4 °C 2.7 °C 1027.3 hPa Calm   1.6 km/h 91% 0 mm 0 W/m2
23:10 3.9 °C 2.9 °C 1027.3 hPa Calm   3.2 km/h 93% 0 mm 0 W/m2
23:20 3.7 °C 2.8 °C 1027.3 hPa Calm   4.8 km/h 94% 0 mm 0 W/m2
23:30 3.7 °C 2.8 °C 1027.3 hPa Calm   3.2 km/h 94% 0 mm 0 W/m2
23:40 3.6 °C 2.7 °C 1027.3 hPa Calm   3.2 km/h 94% 0 mm 0 W/m2
23:50 3.4 °C 2.6 °C 1027.3 hPa Calm   1.6 km/h 94% 0 mm 0 W/m2
Knjazevac, Serbia
Compliments of Weather Underground - 2 mb